LEALLEBG

Guest
Details From LEAL - Alicante
To LEBG - Burgos
Flight Number -
Tags generated
Created
Modified
Stats Distance 287 nm / 531 km
Max Altitude 34,100 ft / 10,394 m
Waypoints 8
Social Downloads 0
Likes 0
Share VATSIM

Download

Looking for another format? Having issues loading an existing format? Contact us
Advertisement - Login to hide

Notes

Basic altitude profile: - Ascent Rate: 1500ft/min - Ascent Speed: 250kts - Cruise Altitude: 22000ft - Cruise Speed: 420kts - Descent Rate: 1500ft/min - Descent Speed: 250kts Options: - Use NATs: yes - Use PACOTS: yes - Use low airways: yes - Use high airways: yes

Route

LEAL NARGO A31 ASTRO UL150 CJN UN10 PINAR LEBG

ID Type Via Altitude Latitude Longitude Leg Dist Tot Dist Heading (true) Name
O LEAL APT - 0 ft / 0 m 38.28217˚ -0.55816˚ - 0 nm - Alicante
NARGO FIX - 12,200 ft / 3,719 m 38.73831˚ -0.99868˚ 34 nm 34 nm 323° / 323° -
ASTRO FIX A31 (AWY-LO) 18,800 ft / 5,730 m 39.02438˚ -1.26300˚ 21 nm 55 nm 324° / 324° -
NANDO FIX UL150 (AWY-HI) 34,100 ft / 10,394 m 39.98885˚ -2.17456˚ 71 nm 127 nm 324° / 324° -
VILLA FIX UL150 (AWY-HI) 30,200 ft / 9,205 m 40.23294˚ -2.41045˚ 18 nm 145 nm 324° / 323° -
CJN VOR UL150 (AWY-HI) 28,000 ft / 8,534 m 40.37196˚ -2.54461˚ 10 nm 155 nm 324° / 324° CASTEJON VOR-DME
PINAR FIX UN10 (AWY-HI) 24,500 ft / 7,468 m 40.98029˚ -2.59917˚ 36 nm 192 nm 356° / 356° -
O LEBG APT - 0 ft / 0 m 42.35689˚ -3.61422˚ 94 nm 286 nm 331° / 331° Burgos

Altitude Profile

Advertisement - Login to hide

Weather


0- 5 10 15 20 25 30 35+ Temperature / ° C

Clouds and Precipitation
Forecast for 2017-12-16 18:00 UTC. Updated 2 hours ago

Ground ~20,000 ft ~40,000 ft Winds

LEAL

Details ICAO LEAL (ALC)
Name Alicante
Region Spain
Timezone Europe/Madrid (UTC+1.0)
Stats Elevation 141 ft / 43 m (AMSL)
Location 38.282169° -0.558157°
Runways 1
Magnetic Variation 0.184° E

METAR

LEAL 161900Z VRB02KT CAVOK 07/01 Q1022 NOSIG

Decode

TAF

TAF TAF LEAL 161700Z 1618/1718 VRB03KT 9999 FEW030 TX15/1713Z TN06/1706Z TEMPO 1621/1710 29010KT

Decode

Departure Runways

ID Width Length Bearing (true) Bearing (mag) Surface Threshold Offset Overrun Length
10 148 ft / 45 m 9,799 ft / 2,987 m 100.07° 99.89° Asphalt 0 ft / 0 m 164 ft / 50 m
28 148 ft / 45 m 9,799 ft / 2,987 m 280.09° 279.91° Asphalt 0 ft / 0 m 197 ft / 60 m

LEBG

Details ICAO LEBG (RGS)
Name Burgos
Region Spain
Timezone Europe/Madrid (UTC+1.0)
Stats Elevation 2,961 ft / 903 m (AMSL)
Location 42.356895° -3.614221°
Runways 1
Magnetic Variation 0.787° W

METAR

LEBG 161900Z 33004KT 9999 FEW013 SCT025 01/M01 Q1026

Decode

TAF

Not found

Destination Runways

ID Width Length Bearing (true) Bearing (mag) Surface Threshold Offset Overrun Length
04 148 ft / 45 m 6,423 ft / 1,958 m 43.31° 44.10° Asphalt 0 ft / 0 m 0 ft / 0 m
22 148 ft / 45 m 6,423 ft / 1,958 m 223.32° 224.11° Asphalt 0 ft / 0 m 0 ft / 0 m

Popular Alternatives